createdAt,value
2022-11-20T00:00:38.778Z,10.80
2022-11-20T00:03:05.302Z,12.00
2022-11-20T00:05:33.600Z,14.20
2022-11-20T00:10:44.935Z,10.00
2022-11-20T00:13:11.337Z,11.00
2022-11-20T00:15:40.505Z,12.17
2022-11-20T00:18:09.568Z,16.83
2022-11-20T00:20:38.754Z,12.67
2022-11-20T00:25:49.151Z,10.00
2022-11-20T00:28:16.370Z,13.33
2022-11-20T00:30:42.809Z,14.00
2022-11-20T00:33:09.259Z,14.00
2022-11-20T00:35:37.540Z,13.80
2022-11-20T00:40:54.657Z,12.83
2022-11-20T00:43:23.066Z,11.20
2022-11-20T00:45:50.311Z,14.00
2022-11-20T00:48:16.796Z,15.00
2022-11-20T00:50:46.759Z,13.14
2022-11-20T00:55:59.900Z,11.50
2022-11-20T00:58:26.313Z,11.50
2022-11-20T01:00:52.800Z,12.00
2022-11-20T01:03:26.657Z,14.80
2022-11-20T01:05:56.257Z,11.67
2022-11-20T01:08:22.657Z,14.50
2022-11-20T01:10:49.066Z,10.50
2022-11-20T01:13:16.531Z,15.33
2022-11-20T01:15:44.243Z,12.50
2022-11-20T01:18:10.690Z,12.50
2022-11-20T01:20:37.098Z,12.00
2022-11-20T01:23:07.062Z,12.29
2022-11-20T01:25:33.530Z,13.50
2022-11-20T01:28:00.768Z,14.00
2022-11-20T01:30:27.186Z,14.00
2022-11-20T01:32:53.659Z,12.00
2022-11-20T01:35:20.942Z,15.00
2022-11-20T01:37:47.349Z,12.00
2022-11-20T01:40:17.250Z,12.71
2022-11-20T01:42:43.677Z,12.00
2022-11-20T01:45:11.938Z,13.40
2022-11-20T01:47:39.165Z,11.00
2022-11-20T01:50:07.441Z,12.40
2022-11-20T01:52:33.929Z,10.00
2022-11-20T01:55:02.222Z,13.80
2022-11-20T01:57:30.472Z,12.40
2022-11-20T01:59:59.662Z,12.67
2022-11-20T02:02:26.121Z,14.50
2022-11-20T02:04:52.605Z,11.50
2022-11-20T02:07:19.135Z,13.00
2022-11-20T02:09:45.612Z,12.00
2022-11-20T02:12:12.822Z,12.67
2022-11-20T02:14:42.723Z,12.00
2022-11-20T02:17:09.177Z,11.00
2022-11-20T02:19:37.468Z,14.40
2022-11-20T02:22:03.902Z,14.00
2022-11-20T02:24:32.218Z,13.80
2022-11-20T02:26:59.451Z,14.33
2022-11-20T02:29:26.726Z,14.00
2022-11-20T02:31:53.202Z,15.00
2022-11-20T02:34:20.468Z,14.00
2022-11-20T02:36:47.712Z,13.33
2022-11-20T02:39:14.165Z,11.00
2022-11-20T02:44:34.790Z,16.00
2022-11-20T02:47:03.069Z,14.40
2022-11-20T02:49:29.474Z,13.00
2022-11-20T02:51:55.924Z,14.00
2022-11-20T02:54:25.107Z,12.17
2022-11-20T02:59:49.035Z,11.50
2022-11-20T03:02:15.519Z,12.00
2022-11-20T03:04:42.733Z,14.67
2022-11-20T03:07:11.155Z,15.20
2022-11-20T03:09:40.338Z,12.00
2022-11-20T03:14:53.296Z,13.00
2022-11-20T03:17:20.826Z,16.00
2022-11-20T03:19:49.103Z,12.60
2022-11-20T03:22:15.566Z,14.50
2022-11-20T03:24:43.860Z,14.40
2022-11-20T03:29:58.856Z,14.60
2022-11-20T03:32:25.299Z,14.00
2022-11-20T03:34:51.798Z,15.00
2022-11-20T03:37:18.269Z,13.00
2022-11-20T03:39:45.500Z,13.33
2022-11-20T03:44:58.714Z,12.00
2022-11-20T03:47:25.927Z,16.00
2022-11-20T03:49:52.407Z,13.00
2022-11-20T03:52:18.884Z,16.50
2022-11-20T03:54:45.360Z,11.00
2022-11-20T03:59:58.679Z,13.80
2022-11-20T04:02:25.111Z,14.00
2022-11-20T04:04:53.419Z,17.40
2022-11-20T04:07:19.907Z,15.00
2022-11-20T04:09:48.227Z,14.60
2022-11-20T04:15:02.522Z,15.60
2022-11-20T04:17:28.990Z,14.00
2022-11-20T04:19:58.175Z,14.33
2022-11-20T04:22:25.401Z,12.33
2022-11-20T04:24:52.639Z,12.33
2022-11-20T04:30:08.462Z,11.14
2022-11-20T04:32:34.873Z,13.00
2022-11-20T04:35:02.099Z,12.67
2022-11-20T04:37:30.411Z,14.80
2022-11-20T04:39:57.689Z,15.33
2022-11-20T04:45:09.180Z,19.00
2022-11-20T04:47:36.429Z,16.33
2022-11-20T04:50:04.761Z,15.00
2022-11-20T04:52:33.943Z,12.50
2022-11-20T04:55:00.414Z,18.00
2022-11-20T05:00:22.534Z,13.00
2022-11-20T05:02:52.631Z,13.00
2022-11-20T05:05:19.893Z,15.00
2022-11-20T05:07:48.162Z,11.20
2022-11-20T05:10:15.397Z,15.00
2022-11-20T05:15:39.117Z,15.86
2022-11-20T05:18:05.544Z,11.00
2022-11-20T05:20:32.758Z,13.67
2022-11-20T05:22:59.170Z,12.00
2022-11-20T05:25:25.626Z,13.50
2022-11-20T05:30:48.096Z,12.00
2022-11-20T05:33:14.532Z,11.00
2022-11-20T05:35:41.794Z,15.33
2022-11-20T05:38:11.731Z,12.57
2022-11-20T05:40:40.009Z,12.20
2022-11-20T05:46:01.223Z,16.67
2022-11-20T05:48:27.651Z,13.50
2022-11-20T05:50:54.957Z,17.00
2022-11-20T05:53:21.398Z,17.00
2022-11-20T05:55:47.851Z,15.00
2022-11-20T06:01:08.151Z,13.50
2022-11-20T06:03:36.474Z,15.00
2022-11-20T06:06:02.889Z,15.00
2022-11-20T06:08:29.307Z,17.00
2022-11-20T06:10:55.741Z,21.00
2022-11-20T06:16:17.043Z,16.50
2022-11-20T06:18:44.369Z,19.00
2022-11-20T06:21:10.815Z,17.50
2022-11-20T06:23:38.248Z,18.00
2022-11-20T06:26:04.682Z,13.50
2022-11-20T06:31:15.313Z,18.00
2022-11-20T06:33:42.662Z,20.00
2022-11-20T06:36:10.865Z,18.00
2022-11-20T06:38:37.635Z,24.50
2022-11-20T06:41:04.243Z,18.50
2022-11-20T06:46:16.748Z,17.00
2022-11-20T06:48:44.024Z,18.00
2022-11-20T06:51:11.681Z,21.00
2022-11-20T06:53:39.132Z,21.00
2022-11-20T06:56:05.619Z,19.00
2022-11-20T07:01:18.383Z,15.67
2022-11-20T07:03:50.028Z,16.33
2022-11-20T07:06:19.855Z,13.50
2022-11-20T07:08:47.436Z,18.00
2022-11-20T07:11:14.964Z,15.67
2022-11-20T07:13:41.558Z,12.50
2022-11-20T07:16:09.305Z,20.67
2022-11-20T07:18:37.306Z,18.67
2022-11-20T07:21:04.662Z,16.67
2022-11-20T07:23:31.921Z,16.00
2022-11-20T07:25:58.334Z,19.00
2022-11-20T07:28:25.639Z,17.33
2022-11-20T07:30:52.066Z,14.00
2022-11-20T07:33:19.355Z,17.67
2022-11-20T07:35:46.614Z,16.67
2022-11-20T07:38:13.944Z,17.67
2022-11-20T07:40:42.231Z,15.80
2022-11-20T07:43:09.529Z,15.33
2022-11-20T07:45:37.844Z,16.00
2022-11-20T07:48:05.087Z,13.00
2022-11-20T07:50:32.319Z,16.67
2022-11-20T07:52:59.584Z,14.67
2022-11-20T07:55:26.052Z,12.50
2022-11-20T07:57:54.347Z,12.40
2022-11-20T08:00:24.258Z,14.57
2022-11-20T08:02:52.517Z,10.80
2022-11-20T08:05:18.938Z,12.00
2022-11-20T08:07:46.217Z,10.50
2022-11-20T08:10:12.677Z,12.00
2022-11-20T08:12:39.054Z,7.33
2022-11-20T08:15:11.347Z,9.00
2022-11-20T08:17:40.396Z,26.33
2022-11-20T08:20:06.857Z,51.00
2022-11-20T08:22:33.300Z,42.50
2022-11-20T08:24:59.754Z,39.00
2022-11-20T08:27:26.236Z,57.50
2022-11-20T08:29:52.714Z,47.00
2022-11-20T08:35:03.147Z,35.00
2022-11-20T08:37:29.636Z,33.00
2022-11-20T08:39:56.101Z,32.00
2022-11-20T08:42:22.537Z,33.00
2022-11-20T08:44:48.995Z,31.00
2022-11-20T08:50:00.335Z,35.00
2022-11-20T08:52:27.694Z,28.33
2022-11-20T08:54:54.172Z,27.00
2022-11-20T08:57:20.594Z,25.00
2022-11-20T09:05:17.802Z,22.50
2022-11-20T09:07:45.335Z,25.67
2022-11-20T09:10:27.093Z,24.00
2022-11-20T09:12:54.888Z,24.33
2022-11-20T09:15:21.343Z,24.00
2022-11-20T09:20:32.873Z,28.50
2022-11-20T09:23:00.215Z,21.33
2022-11-20T09:25:26.670Z,25.50
2022-11-20T09:27:53.094Z,19.00
2022-11-20T09:30:19.610Z,24.00
2022-11-20T09:35:31.066Z,18.00
2022-11-20T09:37:58.395Z,22.33
2022-11-20T09:40:25.724Z,24.67
2022-11-20T09:42:53.043Z,20.67
2022-11-20T09:45:20.384Z,20.33
2022-11-20T09:50:41.832Z,21.50
2022-11-20T09:53:08.350Z,19.50
2022-11-20T09:55:35.677Z,19.00
2022-11-20T09:58:02.135Z,22.00
2022-11-20T10:00:28.551Z,16.00
2022-11-20T10:05:38.796Z,18.00
2022-11-20T10:08:05.270Z,15.50
2022-11-20T10:10:31.715Z,17.50
2022-11-20T10:13:00.028Z,18.00
2022-11-20T10:15:29.815Z,19.50
2022-11-20T10:20:41.393Z,22.00
2022-11-20T10:23:07.846Z,21.00
2022-11-20T10:25:36.182Z,16.60
2022-11-20T10:28:03.559Z,20.67
2022-11-20T10:30:30.893Z,23.00
2022-11-20T10:35:51.856Z,20.00
2022-11-20T10:38:19.214Z,21.50
2022-11-20T10:40:45.623Z,17.50
2022-11-20T10:43:12.991Z,19.33
2022-11-20T10:45:39.488Z,26.00
2022-11-20T10:51:01.801Z,21.33
2022-11-20T10:53:29.200Z,21.67
2022-11-20T10:55:56.568Z,23.67
2022-11-20T10:58:23.910Z,20.00
2022-11-20T11:00:51.220Z,19.33
2022-11-20T11:06:01.881Z,20.00
2022-11-20T11:08:28.311Z,19.00
2022-11-20T11:10:54.738Z,17.50
2022-11-20T11:13:22.085Z,17.67
2022-11-20T11:15:48.556Z,36.00
2022-11-20T11:20:59.276Z,28.00
2022-11-20T11:23:26.650Z,25.67
2022-11-20T11:25:53.184Z,21.00
2022-11-20T11:28:19.643Z,22.50
2022-11-20T11:30:47.038Z,25.33
2022-11-20T11:36:07.693Z,26.00
2022-11-20T11:38:34.127Z,21.50
2022-11-20T11:41:00.568Z,25.50
2022-11-20T11:43:28.308Z,20.67
2022-11-20T11:45:54.773Z,23.00
2022-11-20T11:51:06.164Z,24.00
2022-11-20T11:53:33.542Z,28.67
2022-11-20T11:56:00.939Z,25.00
2022-11-20T11:58:28.353Z,26.67
2022-11-20T12:00:54.802Z,21.00
2022-11-20T12:06:06.045Z,20.67
2022-11-20T12:08:32.628Z,33.00
2022-11-20T12:10:59.219Z,28.00
2022-11-20T12:13:26.624Z,31.00
2022-11-20T12:15:55.727Z,4.00
2022-11-20T12:18:22.218Z,29.50
2022-11-20T12:20:49.595Z,32.00
2022-11-20T12:23:16.056Z,29.00
2022-11-20T12:25:42.521Z,32.00
2022-11-20T12:28:09.041Z,30.50
2022-11-20T12:30:36.453Z,24.67
2022-11-20T12:33:02.925Z,30.00
2022-11-20T12:35:30.306Z,30.50
2022-11-20T12:37:57.772Z,26.00
2022-11-20T12:40:24.272Z,31.00
2022-11-20T12:42:50.730Z,26.50
2022-11-20T12:45:18.107Z,27.00
2022-11-20T12:47:44.550Z,26.00
2022-11-20T12:50:11.119Z,25.50
2022-11-20T12:52:38.506Z,22.00
2022-11-20T12:55:05.920Z,26.33
2022-11-20T12:57:32.381Z,26.00
2022-11-20T12:59:58.843Z,27.00
2022-11-20T13:02:26.282Z,29.33
2022-11-20T13:04:52.727Z,27.00
2022-11-20T13:07:20.248Z,26.67
2022-11-20T13:09:46.732Z,28.50
2022-11-20T13:12:13.166Z,27.00
2022-11-20T13:14:40.542Z,25.67
2022-11-20T13:17:07.007Z,26.50
2022-11-20T13:19:33.472Z,26.00
2022-11-20T13:21:59.923Z,28.00
2022-11-20T13:24:27.331Z,26.67
2022-11-20T13:26:54.722Z,26.67
2022-11-20T13:29:22.132Z,29.00
2022-11-20T13:31:49.497Z,22.00
2022-11-20T13:34:15.924Z,19.00
2022-11-20T13:39:38.175Z,25.33
2022-11-20T13:42:05.562Z,24.33
2022-11-20T13:44:34.703Z,2.50
2022-11-20T13:47:01.215Z,25.50
2022-11-20T13:49:27.658Z,26.00
2022-11-20T13:54:48.816Z,24.00
2022-11-20T13:57:16.445Z,22.00
2022-11-20T13:59:42.914Z,27.00
2022-11-20T14:02:10.320Z,30.00
2022-11-20T14:04:36.773Z,27.50
2022-11-20T14:09:58.321Z,22.00
2022-11-20T14:12:24.757Z,23.50
2022-11-20T14:14:51.228Z,27.50
2022-11-20T14:17:18.615Z,24.00
2022-11-20T14:19:46.852Z,12.60
2022-11-20T14:25:00.741Z,26.00
2022-11-20T14:27:28.107Z,25.33
2022-11-20T14:29:55.492Z,25.33
2022-11-20T14:32:21.947Z,28.00
2022-11-20T14:34:49.332Z,24.33
2022-11-20T14:40:00.866Z,27.00
2022-11-20T14:42:27.331Z,24.50
2022-11-20T14:44:53.778Z,27.50
2022-11-20T14:47:20.228Z,24.00
2022-11-20T14:49:46.667Z,24.00
2022-11-20T14:55:06.999Z,26.00
2022-11-20T14:57:33.454Z,29.50
2022-11-20T15:00:02.617Z,3.00
2022-11-20T15:02:30.013Z,26.33
2022-11-20T15:04:57.380Z,27.33
2022-11-20T15:10:19.661Z,25.67
2022-11-20T15:12:46.964Z,19.33
2022-11-20T15:15:14.358Z,24.50
2022-11-20T15:17:40.811Z,28.00
2022-11-20T15:20:08.186Z,26.33
2022-11-20T15:25:28.817Z,24.00
2022-11-20T15:27:55.261Z,27.50
2022-11-20T15:30:21.707Z,27.50
2022-11-20T15:32:48.936Z,8.50
2022-11-20T15:35:16.319Z,26.00
2022-11-20T15:40:37.739Z,29.50
2022-11-20T15:43:08.167Z,25.00
2022-11-20T15:45:37.984Z,29.50
2022-11-20T15:48:04.638Z,24.50
2022-11-20T15:50:31.102Z,26.00
2022-11-20T15:55:42.759Z,28.00
2022-11-20T15:58:09.220Z,25.50
2022-11-20T16:00:36.663Z,26.67
2022-11-20T16:03:04.034Z,25.33
2022-11-20T16:05:30.554Z,19.00
2022-11-20T16:10:41.851Z,21.00
2022-11-20T16:13:09.231Z,22.00
2022-11-20T16:15:35.651Z,18.00
2022-11-20T16:18:03.032Z,18.33
2022-11-20T16:20:29.488Z,17.50
2022-11-20T16:25:51.785Z,16.67
2022-11-20T16:28:19.518Z,16.67
2022-11-20T16:30:46.965Z,19.67
2022-11-20T16:33:14.308Z,20.00
2022-11-20T16:35:40.777Z,16.00
2022-11-20T16:41:33.134Z,18.60
2022-11-20T16:44:00.473Z,16.00
2022-11-20T16:46:27.772Z,18.00
2022-11-20T16:48:54.259Z,20.00
2022-11-20T16:51:20.673Z,19.50
2022-11-20T16:56:31.260Z,18.00
2022-11-20T16:58:57.674Z,18.00
2022-11-20T17:01:24.179Z,15.50
2022-11-20T17:03:52.538Z,13.40
2022-11-20T17:06:19.787Z,13.00
2022-11-20T17:11:32.229Z,13.00
2022-11-20T17:13:58.722Z,16.00
2022-11-20T17:16:25.175Z,14.00
2022-11-20T17:18:57.017Z,12.80
2022-11-20T17:21:26.109Z,14.00
2022-11-20T17:26:47.433Z,11.00
2022-11-20T17:29:14.730Z,16.67
2022-11-20T17:31:41.212Z,15.00
2022-11-20T17:34:08.418Z,14.33
2022-11-20T17:36:34.920Z,13.00
2022-11-20T17:41:48.968Z,13.00
2022-11-20T17:44:16.227Z,16.00
2022-11-20T17:46:43.502Z,15.00
2022-11-20T17:49:10.823Z,14.67
2022-11-20T17:51:37.274Z,16.00
2022-11-20T17:57:01.305Z,15.67
2022-11-20T17:59:28.576Z,16.33
2022-11-20T18:01:56.810Z,18.00
2022-11-20T18:04:28.025Z,15.20
2022-11-20T18:06:56.360Z,16.60
2022-11-20T18:12:08.701Z,16.67
2022-11-20T18:14:35.177Z,14.50
2022-11-20T18:17:03.556Z,12.80
2022-11-20T18:19:32.907Z,14.60
2022-11-20T18:22:03.031Z,12.86
2022-11-20T18:27:25.126Z,14.33
2022-11-20T18:29:52.663Z,14.67
2022-11-20T18:32:20.075Z,17.00
2022-11-20T18:34:48.350Z,12.80
2022-11-20T18:37:14.959Z,14.00
2022-11-20T18:42:27.281Z,14.00
2022-11-20T18:44:57.172Z,15.00
2022-11-20T18:47:23.628Z,16.00
2022-11-20T18:49:50.194Z,12.50
2022-11-20T18:52:16.684Z,15.50
2022-11-20T18:57:39.716Z,9.00
2022-11-20T19:00:09.380Z,12.50
2022-11-20T19:02:41.648Z,15.33
2022-11-20T19:05:10.739Z,13.60
2022-11-20T19:07:39.115Z,12.60
2022-11-20T19:13:01.560Z,13.20
2022-11-20T19:15:27.984Z,14.00
2022-11-20T19:17:56.283Z,13.80
2022-11-20T19:20:25.002Z,13.20
2022-11-20T19:22:51.684Z,13.00
2022-11-20T19:28:03.836Z,16.00
2022-11-20T19:30:30.321Z,16.50
2022-11-20T19:32:56.832Z,13.50
2022-11-20T19:35:25.228Z,15.40
2022-11-20T19:37:51.719Z,13.50
2022-11-20T19:43:12.948Z,21.00
2022-11-20T19:45:40.322Z,14.50
2022-11-20T19:48:10.259Z,15.57
2022-11-20T19:50:36.699Z,13.00
2022-11-20T19:53:04.008Z,16.00
2022-11-20T19:55:30.633Z,13.00
2022-11-20T19:57:58.989Z,17.40
2022-11-20T20:00:31.193Z,20.33
2022-11-20T20:02:59.918Z,17.00
2022-11-20T20:05:27.172Z,14.67
2022-11-20T20:07:54.490Z,16.00
2022-11-20T20:10:21.149Z,16.00
2022-11-20T20:12:48.399Z,15.67
2022-11-20T20:15:14.874Z,14.00
2022-11-20T20:17:41.317Z,17.00
2022-11-20T20:20:08.609Z,20.00
2022-11-20T20:22:37.057Z,18.80
2022-11-20T20:25:06.267Z,12.50
2022-11-20T20:27:33.548Z,17.00
2022-11-20T20:30:00.808Z,16.33
2022-11-20T20:32:29.855Z,15.40
2022-11-20T20:34:56.371Z,16.50
2022-11-20T20:37:22.951Z,19.00
2022-11-20T20:39:49.409Z,18.00
2022-11-20T20:42:16.823Z,18.67
2022-11-20T20:44:43.233Z,14.50
2022-11-20T20:47:10.516Z,16.33
2022-11-20T20:49:38.914Z,14.80
2022-11-20T20:52:06.280Z,16.00
2022-11-20T20:54:34.658Z,18.67
2022-11-20T20:57:01.205Z,14.00
2022-11-20T20:59:27.619Z,14.50
2022-11-20T21:01:54.935Z,18.00
2022-11-20T21:04:23.267Z,13.60
2022-11-20T21:06:49.694Z,16.00
2022-11-20T21:09:16.944Z,15.33
2022-11-20T21:11:44.209Z,16.67
2022-11-20T21:17:05.513Z,16.67
2022-11-20T21:19:32.827Z,18.00
2022-11-20T21:22:00.156Z,15.67
2022-11-20T21:24:26.626Z,16.00
2022-11-20T21:26:54.987Z,17.60
2022-11-20T21:32:16.104Z,13.50
2022-11-20T21:34:42.520Z,16.00
2022-11-20T21:37:08.934Z,21.50
2022-11-20T21:39:36.217Z,19.33
2022-11-20T21:42:02.657Z,21.00
2022-11-20T21:47:23.995Z,17.33
2022-11-20T21:49:51.286Z,17.67
2022-11-20T21:52:17.738Z,17.00
2022-11-20T21:54:45.156Z,19.67
2022-11-20T21:57:12.505Z,18.67
2022-11-20T22:02:24.800Z,18.00
2022-11-20T22:04:51.230Z,20.50
2022-11-20T22:07:18.914Z,20.00
2022-11-20T22:09:45.411Z,20.00
2022-11-20T22:12:12.787Z,17.33
2022-11-20T22:17:34.081Z,18.33
2022-11-20T22:20:01.454Z,20.00
2022-11-20T22:22:28.793Z,21.00
2022-11-20T22:24:56.135Z,20.67
2022-11-20T22:27:22.545Z,20.50
2022-11-20T22:32:44.588Z,20.33
2022-11-20T22:35:11.162Z,20.50
2022-11-20T22:37:38.625Z,17.67
2022-11-20T22:40:06.013Z,23.67
2022-11-20T22:42:32.462Z,23.00
2022-11-20T22:47:44.172Z,20.00
2022-11-20T22:50:11.406Z,18.67
2022-11-20T22:52:38.715Z,17.00
2022-11-20T22:55:05.177Z,17.00
2022-11-20T22:57:31.611Z,20.50
2022-11-20T23:02:51.687Z,18.00
2022-11-20T23:05:19.053Z,18.33
2022-11-20T23:07:46.355Z,17.67
2022-11-20T23:10:13.760Z,19.33
2022-11-20T23:12:41.061Z,18.00
2022-11-20T23:17:52.286Z,20.00
2022-11-20T23:20:19.598Z,18.67
2022-11-20T23:22:47.052Z,19.67
2022-11-20T23:25:14.360Z,20.00
2022-11-20T23:27:40.886Z,15.00
2022-11-20T23:32:53.090Z,22.33
2022-11-20T23:35:20.432Z,20.67
2022-11-20T23:37:47.725Z,20.67
2022-11-20T23:40:14.169Z,22.00
2022-11-20T23:42:40.564Z,20.50
2022-11-20T23:48:01.892Z,22.00
2022-11-20T23:50:29.322Z,20.33
2022-11-20T23:52:56.668Z,23.67
2022-11-20T23:55:23.081Z,20.00
2022-11-20T23:57:50.383Z,20.67
